Time;durP1;ratioP1;P1;durP2;ratioP2;P2;SDS_P1;SDS_P2;PMS_P1;PMS_P2;Temp;Humidity;BMP_temperature;BMP_pressure;BME280_temperature;BME280_humidity;BME280_pressure;Samples;Min_cycle;Max_cycle;Signal;HPM_P1;HPM_P2
2023/05/01 00:02:06;;;;;;;12.27;11.13;;;8.90;99.90;;;9.69;95.99;97898.81;5118339;28;20217;-63
2023/05/01 00:04:39;;;;;;;11.07;10.17;;;8.90;99.90;;;9.71;95.15;97897.22;5118395;28;20668;-62
2023/05/01 00:07:13;;;;;;;12.40;11.37;;;8.90;99.90;;;9.68;95.87;97890.28;5115969;28;20232;-62
2023/05/01 00:09:46;;;;;;;11.73;10.73;;;8.90;99.90;;;9.72;95.55;97898.09;5116850;28;20224;-63
2023/05/01 00:12:19;;;;;;;11.10;10.25;;;8.90;99.90;;;9.69;94.82;97888.59;5118792;28;20207;-62
2023/05/01 00:14:54;;;;;;;11.30;10.30;;;8.90;99.90;;;9.74;95.63;97887.22;5119555;28;20589;-62
2023/05/01 00:17:27;;;;;;;11.17;10.27;;;9.00;99.90;;;9.75;95.22;97883.84;5116820;28;20204;-62
2023/05/01 00:20:00;;;;;;;12.43;11.40;;;8.90;99.90;;;9.73;95.79;97877.81;5119772;28;20231;-62
2023/05/01 00:22:34;;;;;;;12.20;11.03;;;8.90;99.90;;;9.73;95.21;97877.81;5118449;28;20661;-62
2023/05/01 00:25:09;;;;;;;11.03;10.10;;;8.90;99.90;;;9.71;96.27;97876.81;5117878;28;20204;-62
2023/05/01 00:27:42;;;;;;;10.87;9.93;;;8.90;99.90;;;9.68;96.00;97876.63;5117749;28;20286;-62
2023/05/01 00:30:15;;;;;;;10.87;9.70;;;8.90;99.90;;;9.71;96.46;97866.59;5117856;28;20228;-62
2023/05/01 00:32:48;;;;;;;10.37;9.47;;;8.90;99.90;;;9.69;96.17;97863.94;5119341;28;20204;-63
2023/05/01 00:35:21;;;;;;;10.10;9.30;;;8.80;99.90;;;9.66;96.00;97862.88;5115524;28;20728;-62
2023/05/01 00:37:55;;;;;;;10.63;9.73;;;8.80;99.90;;;9.65;95.77;97862.00;5116748;28;20197;-63
2023/05/01 00:40:28;;;;;;;10.13;9.23;;;8.70;99.90;;;9.60;95.20;97857.41;5117721;28;20208;-62
2023/05/01 00:43:02;;;;;;;10.07;9.27;;;8.70;99.90;;;9.60;95.15;97855.75;5118013;28;20201;-62
2023/05/01 00:45:35;;;;;;;10.50;9.60;;;8.70;99.90;;;9.52;95.01;97849.28;5117068;28;20205;-63
2023/05/01 00:48:09;;;;;;;9.70;9.00;;;8.60;99.90;;;9.50;95.76;97852.53;5118577;28;20228;-62
2023/05/01 00:50:44;;;;;;;10.67;9.77;;;8.60;99.90;;;9.44;96.35;97851.41;5114628;28;20215;-63
2023/05/01 00:53:19;;;;;;;10.53;9.73;;;8.50;99.90;;;9.41;96.29;97846.09;5117124;28;20783;-62
2023/05/01 00:55:53;;;;;;;9.53;8.77;;;8.50;99.90;;;9.34;96.01;97837.97;5116896;28;20291;-62
2023/05/01 00:58:26;;;;;;;10.20;9.50;;;8.40;99.90;;;9.30;96.51;97836.00;5115632;28;20223;-62
2023/05/01 01:01:00;;;;;;;12.27;11.17;;;8.40;99.90;;;9.35;96.90;97839.72;5125387;28;20208;-62
2023/05/01 01:03:33;;;;;;;10.60;9.73;;;8.50;99.90;;;9.30;97.04;97836.00;5113930;28;20266;-62
2023/05/01 01:06:13;;;;;;;10.57;9.77;;;8.50;99.90;;;9.33;96.01;97832.00;5113056;28;20197;-62
2023/05/01 01:09:07;;;;;;;9.90;8.90;;;8.40;99.90;;;9.27;96.82;97830.72;5117124;28;20216;-62
2023/05/01 01:11:53;;;;;;;11.03;10.03;;;8.40;99.90;;;9.27;96.77;97821.44;5116029;28;20216;-62
2023/05/01 01:14:32;;;;;;;11.93;10.73;;;8.40;99.90;;;9.26;97.25;97822.19;5115300;28;20197;-63
2023/05/01 01:17:30;;;;;;;11.53;10.53;;;8.40;99.90;;;9.26;97.08;97819.66;5118606;28;20204;-62
2023/05/01 01:20:32;;;;;;;10.97;10.03;;;8.40;99.90;;;9.31;96.96;97818.25;5116277;29;20688;-63
2023/05/01 01:23:54;;;;;;;11.30;10.10;;;8.50;99.90;;;9.33;96.58;97819.25;5116194;28;20561;-62
2023/05/01 01:26:47;;;;;;;10.40;9.50;;;8.40;99.90;;;9.25;96.41;97816.22;5109180;28;20233;-62
2023/05/01 01:29:40;;;;;;;10.47;9.60;;;8.40;99.90;;;9.20;97.62;97817.59;5116195;28;20593;-62
2023/05/01 01:32:53;;;;;;;10.93;9.90;;;8.40;99.90;;;9.17;97.13;97813.97;5113654;28;20208;-63
2023/05/01 01:35:29;;;;;;;11.47;10.57;;;8.30;99.90;;;9.15;97.52;97807.91;5112787;28;20233;-63
2023/05/01 01:38:07;;;;;;;12.37;11.27;;;8.30;99.90;;;9.12;97.77;97810.25;5115057;28;20330;-63
2023/05/01 01:40:50;;;;;;;12.20;11.10;;;8.30;99.90;;;9.07;97.40;97804.91;5113794;28;20209;-63
2023/05/01 01:43:26;;;;;;;10.97;10.03;;;8.20;99.90;;;9.00;97.13;97808.72;5117297;28;20779;-62
2023/05/01 01:46:03;;;;;;;11.93;10.93;;;8.20;99.90;;;8.94;96.72;97810.88;5118941;28;20196;-62
2023/05/01 01:48:41;;;;;;;12.00;11.07;;;8.20;99.90;;;9.03;97.43;97803.81;5117028;28;20706;-62
2023/05/01 01:51:19;;;;;;;12.33;11.20;;;8.20;99.90;;;9.02;97.25;97801.19;5113990;28;20203;-62
2023/05/01 01:53:57;;;;;;;12.17;11.17;;;8.20;99.90;;;9.01;97.56;97812.13;5116910;29;20196;-62
2023/05/01 01:56:31;;;;;;;12.77;11.60;;;8.20;99.90;;;9.04;97.23;97807.22;5117055;28;20208;-62
2023/05/01 01:59:05;;;;;;;10.77;9.87;;;8.20;99.90;;;9.06;97.36;97804.78;5115909;28;20247;-64
2023/05/01 02:01:41;;;;;;;11.40;10.37;;;8.20;99.90;;;9.06;97.48;97799.69;5114703;28;20207;-62
2023/05/01 02:04:16;;;;;;;11.43;10.43;;;8.20;99.90;;;8.95;97.94;97794.78;5111746;28;20674;-62
2023/05/01 02:06:51;;;;;;;11.10;10.13;;;8.20;99.90;;;8.98;97.89;97792.44;5116741;28;20232;-62
2023/05/01 02:09:26;;;;;;;11.67;10.60;;;8.20;99.90;;;9.01;97.53;97791.75;5113996;28;20266;-63
2023/05/01 02:12:02;;;;;;;11.23;10.27;;;8.20;99.90;;;8.90;97.50;97782.56;5113574;28;20208;-62
2023/05/01 02:14:37;;;;;;;11.30;10.40;;;8.10;99.90;;;8.86;97.43;97780.63;5117517;28;20567;-62
2023/05/01 02:17:10;;;;;;;12.73;11.63;;;8.10;99.90;;;8.94;97.74;97777.75;5116486;28;20197;-63
2023/05/01 02:19:45;;;;;;;11.47;10.47;;;8.10;99.90;;;8.93;97.68;97773.44;5115643;28;20231;-62
2023/05/01 02:22:21;;;;;;;11.40;10.60;;;8.20;99.90;;;9.01;97.55;97772.25;5112376;28;20212;-62
2023/05/01 02:24:56;;;;;;;12.40;11.40;;;8.20;99.90;;;9.05;97.73;97767.34;5117083;28;20288;-63
2023/05/01 02:27:34;;;;;;;11.40;10.40;;;8.20;99.90;;;9.02;97.62;97773.13;5117260;28;20675;-62
2023/05/01 02:30:09;;;;;;;10.70;9.80;;;8.20;99.90;;;9.05;97.70;97768.22;5117119;28;20314;-62
2023/05/01 02:32:42;;;;;;;11.70;10.60;;;8.20;99.90;;;9.03;97.79;97765.56;5109902;28;20203;-64
2023/05/01 02:35:15;;;;;;;11.20;10.30;;;8.20;99.90;;;9.08;98.02;97767.53;5115973;28;20219;-63
2023/05/01 02:37:50;;;;;;;12.00;11.00;;;8.30;99.90;;;9.03;98.02;97765.56;5113089;28;20643;-62
2023/05/01 02:40:24;;;;;;;11.37;10.40;;;8.20;99.90;;;8.95;97.22;97766.75;5114678;28;20211;-64
2023/05/01 02:42:58;;;;;;;12.43;11.33;;;8.20;99.90;;;8.95;97.75;97760.78;5116840;28;20670;-62
2023/05/01 02:45:36;;;;;;;11.60;10.70;;;8.20;99.90;;;9.05;97.08;97752.06;5117465;28;20223;-64
2023/05/01 02:48:13;;;;;;;11.73;10.73;;;8.20;99.90;;;9.07;98.07;97753.91;5108418;28;20233;-62
2023/05/01 02:50:48;;;;;;;10.93;10.03;;;8.30;99.90;;;9.10;98.10;97753.19;5115816;28;20585;-63
2023/05/01 02:53:23;;;;;;;12.10;11.20;;;8.30;99.90;;;8.97;97.04;97749.03;5115704;28;20285;-62
2023/05/01 02:55:57;;;;;;;11.50;10.57;;;8.20;99.90;;;8.94;97.16;97743.75;5116364;28;20196;-62
2023/05/01 02:58:32;;;;;;;12.00;11.00;;;8.20;99.90;;;8.86;96.90;97739.84;5115017;28;20234;-64
2023/05/01 03:01:05;;;;;;;11.90;10.90;;;8.20;99.90;;;8.97;97.71;97739.69;5109542;28;20978;-64
2023/05/01 03:03:38;;;;;;;12.00;10.97;;;8.20;99.90;;;9.05;97.20;97742.72;5116751;28;20211;-62
2023/05/01 03:06:13;;;;;;;12.03;10.83;;;8.30;99.90;;;9.06;98.01;97735.97;5115867;28;20298;-62
2023/05/01 03:08:47;;;;;;;11.60;10.60;;;8.30;99.90;;;9.11;98.62;97737.13;5113108;28;20278;-64
2023/05/01 03:11:20;;;;;;;10.90;10.07;;;8.40;99.90;;;9.12;98.50;97733.78;5113292;28;20298;-62
2023/05/01 03:13:53;;;;;;;11.43;10.53;;;8.30;99.90;;;9.07;98.03;97735.16;5113902;28;20574;-62
2023/05/01 03:16:26;;;;;;;12.50;11.47;;;8.30;99.90;;;9.11;97.48;97738.00;5113765;28;20213;-62
2023/05/01 03:18:59;;;;;;;11.90;11.00;;;8.30;99.90;;;9.20;97.76;97737.66;5112469;28;20629;-62
2023/05/01 03:21:33;;;;;;;11.50;10.60;;;8.40;99.90;;;9.19;98.45;97738.47;5115274;28;20231;-62
2023/05/01 03:24:07;;;;;;;11.13;10.23;;;8.40;99.90;;;9.26;97.87;97738.03;5116473;28;20233;-62
2023/05/01 03:26:40;;;;;;;11.43;10.33;;;8.40;99.90;;;9.27;98.12;97737.25;5114108;28;20578;-62
2023/05/01 03:29:13;;;;;;;11.10;10.20;;;8.40;99.90;;;9.33;99.05;97745.28;5113779;28;20231;-62
2023/05/01 03:31:46;;;;;;;11.10;10.20;;;8.50;99.90;;;9.31;98.06;97739.19;5116893;28;20262;-62
2023/05/01 03:34:19;;;;;;;10.63;9.67;;;8.50;99.90;;;9.30;98.79;97737.44;5114206;28;20204;-61
2023/05/01 03:36:53;;;;;;;12.17;11.10;;;8.50;99.90;;;9.31;98.10;97728.13;5112848;28;20200;-62
2023/05/01 03:39:27;;;;;;;10.80;9.90;;;8.50;99.90;;;9.24;97.54;97729.41;5118577;28;20247;-62
2023/05/01 03:42:01;;;;;;;11.07;10.17;;;8.40;99.90;;;9.25;97.59;97726.97;5118101;28;20216;-62
2023/05/01 03:44:34;;;;;;;11.60;10.60;;;8.40;99.90;;;9.30;98.15;97729.78;5118072;28;20197;-63
2023/05/01 03:47:07;;;;;;;10.87;10.00;;;8.50;99.90;;;9.34;98.65;97723.19;5113957;28;20197;-63
2023/05/01 03:49:40;;;;;;;11.27;10.10;;;8.50;99.90;;;9.37;97.65;97728.47;5118444;28;20632;-62
2023/05/01 03:52:13;;;;;;;10.10;9.23;;;8.50;99.90;;;9.37;97.55;97731.03;5119295;28;20515;-62
2023/05/01 03:54:48;;;;;;;11.00;10.10;;;8.50;99.90;;;9.34;98.26;97726.63;5111812;28;20646;-62
2023/05/01 03:57:22;;;;;;;11.20;10.17;;;8.40;99.90;;;9.29;98.23;97716.94;5115326;28;20196;-63
2023/05/01 03:59:55;;;;;;;11.87;10.70;;;8.40;99.90;;;9.38;98.34;97722.56;5117820;28;20378;-62
2023/05/01 04:02:28;;;;;;;11.13;10.27;;;8.50;99.90;;;9.38;98.81;97708.16;5117291;28;20244;-62
2023/05/01 04:05:01;;;;;;;11.40;10.40;;;8.50;99.90;;;9.37;99.54;97715.72;5117707;28;20240;-62
2023/05/01 04:07:34;;;;;;;10.97;10.07;;;8.50;99.90;;;9.40;98.48;97715.91;5119168;28;20211;-62
2023/05/01 04:10:09;;;;;;;11.13;10.13;;;8.60;99.90;;;9.35;97.70;97717.28;5117933;28;20236;-62
2023/05/01 04:12:44;;;;;;;11.27;10.37;;;8.50;99.90;;;9.32;97.63;97712.88;5119258;28;20200;-62
2023/05/01 04:15:17;;;;;;;11.83;10.93;;;8.50;99.90;;;9.31;97.08;97706.03;5117762;28;20287;-63
2023/05/01 04:17:50;;;;;;;11.10;10.10;;;8.40;99.90;;;9.21;97.12;97708.81;5112712;28;20215;-62
2023/05/01 04:20:23;;;;;;;11.67;10.67;;;8.40;99.90;;;9.24;97.40;97709.00;5119010;28;20754;-62
2023/05/01 04:22:56;;;;;;;10.47;9.63;;;8.40;99.90;;;9.22;97.24;97705.50;5118019;28;20204;-62
2023/05/01 04:25:30;;;;;;;11.47;10.40;;;8.40;99.90;;;9.20;97.18;97714.72;5117793;28;20208;-62
2023/05/01 04:28:04;;;;;;;12.53;11.43;;;8.40;99.90;;;9.42;96.21;97714.34;5117151;28;20231;-63
2023/05/01 04:30:37;;;;;;;11.43;10.50;;;8.50;99.90;;;9.43;96.25;97716.97;5118662;28;20205;-62
2023/05/01 04:33:10;;;;;;;11.43;10.53;;;8.60;99.90;;;9.41;96.82;97712.56;5116449;28;20585;-63
2023/05/01 04:35:43;;;;;;;11.00;9.93;;;8.60;99.90;;;9.41;97.16;97715.09;5116330;28;20209;-62
2023/05/01 04:38:16;;;;;;;10.93;10.03;;;8.60;99.90;;;9.52;96.70;97711.50;5117756;28;20225;-62
2023/05/01 04:40:51;;;;;;;11.63;10.73;;;8.70;99.90;;;9.58;97.96;97718.66;5115171;28;20524;-63
2023/05/01 04:43:24;;;;;;;11.13;10.10;;;8.80;99.90;;;9.65;97.48;97719.09;5108035;28;20213;-62
2023/05/01 04:45:57;;;;;;;11.00;10.20;;;8.80;99.90;;;9.69;97.84;97715.94;5113099;28;20229;-62
2023/05/01 04:48:31;;;;;;;11.23;10.23;;;8.90;99.90;;;9.73;96.95;97713.56;5110055;28;20228;-62
2023/05/01 04:51:04;;;;;;;10.80;9.83;;;8.90;99.90;;;9.68;95.04;97708.19;5110627;28;20813;-63
2023/05/01 04:53:37;;;;;;;11.30;10.40;;;8.90;99.90;;;9.75;95.42;97719.63;5114327;28;20205;-63
2023/05/01 04:56:11;;;;;;;11.63;10.73;;;9.00;99.90;;;9.80;95.35;97710.56;5117991;28;20219;-62
2023/05/01 04:58:44;;;;;;;10.87;10.00;;;9.00;99.90;;;9.85;95.88;97712.59;5118165;28;20561;-62
2023/05/01 05:01:17;;;;;;;11.40;10.40;;;9.10;99.90;;;9.89;95.84;97713.66;5117927;28;20216;-62
2023/05/01 05:03:50;;;;;;;9.90;9.10;;;9.10;99.90;;;9.91;95.00;97725.72;5118532;28;20200;-62
2023/05/01 05:06:24;;;;;;;11.25;10.27;;;9.10;99.90;;;9.95;96.43;97723.34;5111177;28;20240;-62
2023/05/01 05:08:57;;;;;;;10.13;9.20;;;9.20;99.90;;;9.99;95.66;97726.16;5112534;28;20232;-62
2023/05/01 05:11:31;;;;;;;10.95;9.98;;;9.20;99.90;;;10.05;95.03;97736.72;5104579;28;20213;-63
2023/05/01 05:14:04;;;;;;;19.08;17.08;;;9.20;99.90;;;10.08;94.91;97726.69;5109288;28;20679;-62
2023/05/01 05:16:38;;;;;;;12.80;11.55;;;9.20;99.90;;;10.03;95.22;97722.09;5110047;28;20204;-62
2023/05/01 05:19:11;;;;;;;11.85;10.85;;;9.20;99.90;;;10.03;94.29;97722.09;5112477;28;20252;-62
2023/05/01 05:21:44;;;;;;;11.13;10.23;;;9.20;99.90;;;9.92;94.24;97719.81;5107112;28;20201;-62
2023/05/01 05:24:17;;;;;;;11.88;10.68;;;9.20;99.90;;;9.96;95.05;97720.88;5111139;28;20204;-64
2023/05/01 05:26:51;;;;;;;10.93;9.93;;;9.20;99.90;;;10.01;96.74;97719.44;5105003;28;20283;-61
2023/05/01 05:29:24;;;;;;;10.50;9.60;;;9.20;99.90;;;9.90;94.97;97716.31;5106005;28;20227;-61
2023/05/01 05:31:58;;;;;;;10.37;9.47;;;9.20;99.90;;;9.88;95.11;97717.00;5111478;28;20571;-62
2023/05/01 05:34:32;;;;;;;10.52;9.63;;;9.20;99.90;;;9.93;95.27;97720.72;5109137;28;20219;-63
2023/05/01 05:37:05;;;;;;;10.45;9.50;;;9.20;99.90;;;9.97;94.76;97719.19;5109612;28;20312;-62
2023/05/01 05:39:38;;;;;;;10.10;9.30;;;9.20;99.90;;;10.00;93.81;97715.13;5106289;28;20594;-62
2023/05/01 05:42:12;;;;;;;11.65;10.65;;;9.30;99.90;;;10.05;94.18;97716.28;5109051;28;20205;-62
2023/05/01 05:44:45;;;;;;;11.43;10.53;;;9.30;99.90;;;10.11;93.79;97720.88;5108064;28;20582;-62
2023/05/01 05:47:18;;;;;;;11.60;10.73;;;9.30;99.90;;;10.13;93.15;97714.19;5107489;28;20204;-62
2023/05/01 05:49:52;;;;;;;11.25;10.35;;;9.30;99.90;;;10.15;93.78;97720.22;5105316;28;20236;-61
2023/05/01 05:52:25;;;;;;;10.88;10.05;;;9.40;99.90;;;10.21;92.13;97710.34;5104694;28;21030;-62
2023/05/01 05:54:58;;;;;;;9.35;8.55;;;9.40;99.90;;;10.29;93.00;97714.25;5122868;28;20206;-62
2023/05/01 05:57:34;;;;;;;10.07;9.23;;;9.50;99.90;;;10.29;92.36;97715.94;5107166;28;20335;-62
2023/05/01 06:00:09;;;;;;;9.90;9.10;;;9.50;99.90;;;10.44;92.41;97716.75;5108326;28;20216;-61
2023/05/01 06:02:42;;;;;;;10.32;9.45;;;9.60;99.90;;;10.57;91.52;97716.66;5107414;28;20205;-61
2023/05/01 06:05:15;;;;;;;9.63;8.93;;;9.70;99.90;;;10.67;91.86;97715.47;5113326;28;20668;-62
2023/05/01 06:07:48;;;;;;;9.60;8.90;;;9.80;99.90;;;10.73;91.86;97715.81;5110758;28;20209;-61
2023/05/01 06:10:22;;;;;;;10.07;9.27;;;9.90;99.90;;;10.70;91.85;97714.75;5113371;29;20237;-62
2023/05/01 06:12:56;;;;;;;9.32;8.63;;;9.90;99.90;;;10.69;90.31;97721.56;5115542;28;20230;-61
2023/05/01 06:15:46;;;;;;;11.07;10.05;;;9.90;99.90;;;10.71;91.13;97719.09;5104519;28;20201;-62
2023/05/01 06:18:19;;;;;;;10.13;9.32;;;9.90;99.90;;;10.73;91.17;97720.03;5113541;28;20217;-64
2023/05/01 06:20:53;;;;;;;9.18;8.38;;;9.90;99.90;;;10.77;90.42;97715.19;5107210;28;20205;-63
2023/05/01 06:23:26;;;;;;;10.20;9.40;;;10.00;99.90;;;10.74;91.36;97712.47;5106796;28;20229;-64
2023/05/01 06:25:59;;;;;;;10.32;9.55;;;10.00;99.90;;;10.79;90.41;97713.59;5104980;28;20589;-62
2023/05/01 06:28:33;;;;;;;10.00;9.05;;;10.10;99.90;;;10.87;90.24;97713.09;5104480;28;21209;-63
2023/05/01 06:31:07;;;;;;;9.65;8.85;;;10.10;99.90;;;10.97;90.36;97713.69;5109380;28;20603;-62
2023/05/01 06:33:40;;;;;;;10.43;9.52;;;10.20;99.90;;;11.08;91.12;97706.59;5103561;28;20274;-63
2023/05/01 06:36:13;;;;;;;10.32;9.52;;;10.30;99.90;;;11.12;90.08;97711.03;5103351;28;20221;-62
2023/05/01 06:38:48;;;;;;;8.93;8.23;;;10.40;99.90;;;11.20;90.28;97720.00;5103708;28;21784;-61
2023/05/01 06:41:22;;;;;;;9.40;8.60;;;10.40;99.90;;;11.33;91.18;97712.97;5102270;28;20680;-63
2023/05/01 06:43:57;;;;;;;9.80;9.00;;;10.60;99.90;;;11.48;86.61;97711.22;5105724;28;20209;-63
2023/05/01 06:46:30;;;;;;;9.55;8.85;;;10.60;99.90;;;11.52;87.26;97717.34;5104402;28;20201;-61
2023/05/01 06:49:03;;;;;;;9.57;8.85;;;10.70;99.90;;;11.55;87.33;97720.94;5103269;28;20362;-62
2023/05/01 06:51:37;;;;;;;8.10;7.53;;;10.70;99.90;;;11.64;87.11;97716.28;5111599;28;20205;-61
2023/05/01 06:54:09;;;;;;;8.93;8.23;;;10.70;99.90;;;11.67;86.46;97718.13;5111729;28;20208;-61
2023/05/01 06:56:43;;;;;;;8.95;8.32;;;10.80;99.90;;;11.67;87.27;97724.09;5111001;28;20213;-61
2023/05/01 06:59:17;;;;;;;9.07;8.38;;;10.90;99.90;;;11.76;86.59;97717.69;5117567;29;20228;-62
2023/05/01 07:01:51;;;;;;;9.52;8.50;;;10.90;99.90;;;11.79;86.76;97722.97;5108512;28;20808;-62
2023/05/01 07:04:24;;;;;;;8.65;8.05;;;11.00;99.90;;;11.83;87.04;97735.13;5111978;28;20228;-61
2023/05/01 07:06:57;;;;;;;8.93;8.20;;;11.00;99.90;;;11.78;85.29;97726.34;5114318;29;20207;-61
2023/05/01 07:09:30;;;;;;;8.93;8.23;;;11.00;99.90;;;11.76;85.82;97731.41;5111956;28;20342;-62
2023/05/01 07:12:03;;;;;;;8.40;7.80;;;11.00;99.90;;;11.76;85.77;97733.06;5118626;28;20626;-61
2023/05/01 07:14:37;;;;;;;8.95;8.25;;;10.90;99.90;;;11.70;84.31;97729.41;5113661;28;20205;-62
2023/05/01 07:17:10;;;;;;;9.45;8.52;;;10.90;99.90;;;11.62;84.69;97735.81;5110806;28;20302;-61
2023/05/01 07:19:43;;;;;;;8.60;7.90;;;10.90;99.90;;;11.55;85.67;97732.88;5106269;28;20598;-62
2023/05/01 07:22:16;;;;;;;9.00;8.27;;;10.80;99.90;;;11.57;86.31;97742.38;5111842;28;20217;-62
2023/05/01 07:24:49;;;;;;;8.68;8.07;;;10.90;99.90;;;11.53;85.95;97735.34;5105895;28;20211;-63
2023/05/01 07:27:23;;;;;;;9.00;8.30;;;10.90;99.90;;;11.50;87.67;97735.16;5107158;28;20213;-61
2023/05/01 07:29:58;;;;;;;8.93;8.23;;;10.80;99.90;;;11.55;88.60;97740.53;5108739;28;20240;-61
2023/05/01 07:32:31;;;;;;;9.18;8.48;;;10.90;99.90;;;11.57;88.72;97739.81;5116873;28;20205;-62
2023/05/01 07:35:06;;;;;;;9.88;9.07;;;10.90;99.90;;;11.62;90.16;97740.94;5116314;28;20205;-62
2023/05/01 07:37:40;;;;;;;9.05;8.35;;;10.90;99.90;;;11.69;89.93;97739.56;5115827;28;20212;-63
2023/05/01 07:40:13;;;;;;;9.10;8.40;;;11.00;99.90;;;11.73;91.80;97739.81;5109486;28;20237;-62
2023/05/01 07:42:46;;;;;;;9.10;8.40;;;11.10;99.90;;;11.69;91.29;97726.75;5109030;28;20221;-62
2023/05/01 07:45:20;;;;;;;9.38;8.68;;;11.00;99.90;;;11.68;92.24;97731.00;5113459;28;20209;-63
2023/05/01 07:47:54;;;;;;;10.52;9.73;;;11.00;99.90;;;11.72;93.54;97737.16;5108800;28;20215;-62
2023/05/01 07:50:27;;;;;;;9.57;8.80;;;11.10;99.90;;;11.59;90.53;97738.22;5105100;28;20221;-62
2023/05/01 07:53:00;;;;;;;10.45;9.65;;;10.90;99.90;;;11.56;91.65;97745.75;5111657;28;20209;-62
2023/05/01 07:55:33;;;;;;;10.25;9.45;;;10.90;99.90;;;11.61;93.06;97744.28;5106737;28;20201;-62
2023/05/01 07:58:06;;;;;;;10.48;9.48;;;10.90;99.90;;;11.62;94.22;97742.63;5113016;28;20215;-62
2023/05/01 08:00:43;;;;;;;8.95;8.27;;;11.00;99.90;;;11.60;94.71;97742.53;5101769;28;20584;-62
2023/05/01 08:03:16;;;;;;;10.68;9.85;;;11.00;99.90;;;11.61;95.80;97739.16;5109791;28;20303;-62
2023/05/01 08:05:50;;;;;;;10.35;9.55;;;11.00;99.90;;;11.63;94.93;97747.81;5114486;28;20839;-62
2023/05/01 08:08:23;;;;;;;10.18;9.38;;;11.00;99.90;;;11.64;95.55;97739.31;5105892;28;20228;-62
2023/05/01 08:10:56;;;;;;;10.85;10.02;;;11.00;99.90;;;11.68;96.84;97738.69;5109849;28;20664;-61
2023/05/01 08:13:29;;;;;;;12.02;10.98;;;11.10;99.90;;;11.70;96.06;97734.53;5105564;28;20688;-61
2023/05/01 08:16:05;;;;;;;11.07;10.18;;;11.10;99.90;;;11.75;97.24;97733.88;5105624;28;20211;-64
2023/05/01 08:18:38;;;;;;;10.70;9.80;;;11.20;99.90;;;11.80;97.02;97735.00;5104167;28;20233;-62
2023/05/01 08:21:11;;;;;;;10.45;9.57;;;11.20;99.90;;;11.84;97.24;97739.44;5104387;28;20215;-63
2023/05/01 08:23:44;;;;;;;11.20;10.30;;;11.30;99.90;;;11.90;96.88;97737.22;5107820;28;20733;-62
2023/05/01 08:26:17;;;;;;;10.18;9.48;;;11.30;99.90;;;12.00;96.34;97742.00;5106565;28;20205;-62
2023/05/01 08:28:52;;;;;;;10.43;9.63;;;11.40;99.90;;;12.09;95.13;97739.91;5107760;28;20232;-62
2023/05/01 08:31:27;;;;;;;10.45;9.63;;;11.50;99.90;;;12.18;95.59;97740.34;5101874;28;20224;-62
2023/05/01 08:34:00;;;;;;;10.57;9.77;;;11.60;99.90;;;12.35;93.01;97738.59;5102795;28;20208;-62
2023/05/01 08:36:33;;;;;;;10.20;9.40;;;11.70;99.90;;;12.42;87.79;97739.78;5111399;28;20663;-62
2023/05/01 08:39:06;;;;;;;9.55;8.75;;;11.70;99.90;;;12.36;87.23;97739.47;5119772;28;20845;-61
2023/05/01 08:41:40;;;;;;;9.82;9.05;;;11.70;99.90;;;12.43;88.19;97730.41;5110441;28;20196;-62
2023/05/01 08:44:15;;;;;;;9.48;8.75;;;11.80;99.90;;;12.60;90.40;97730.38;5111906;28;20205;-63
2023/05/01 08:47:01;;;;;;;9.95;9.15;;;12.00;99.90;;;12.85;88.23;97721.28;5106906;28;20254;-62
2023/05/01 08:49:36;;;;;;;9.57;8.88;;;12.20;99.90;;;12.76;85.52;97723.41;5109899;28;20259;-62
2023/05/01 08:52:12;;;;;;;9.45;8.68;;;12.10;99.90;;;12.96;83.87;97730.34;5104756;28;20221;-62
2023/05/01 08:54:46;;;;;;;9.13;8.52;;;12.20;99.90;;;12.89;82.54;97722.28;5104300;28;20586;-62
2023/05/01 08:57:21;;;;;;;8.93;8.32;;;12.20;99.90;;;13.04;84.06;97723.84;5103322;28;20196;-62
2023/05/01 08:59:56;;;;;;;8.13;7.50;;;12.30;99.90;;;13.15;82.96;97726.03;5111618;28;20227;-62
2023/05/01 09:02:34;;;;;;;9.82;9.00;;;12.40;99.90;;;13.18;81.59;97721.03;5101710;28;21048;-63
2023/05/01 09:05:09;;;;;;;9.50;8.70;;;12.50;99.90;;;13.13;81.43;97717.38;5110436;28;20197;-62
2023/05/01 09:07:44;;;;;;;9.88;8.95;;;12.40;99.90;;;13.17;80.16;97716.72;5109046;28;20300;-62
2023/05/01 09:10:18;;;;;;;8.48;7.88;;;12.50;99.90;;;13.27;81.81;97721.47;5113566;28;20727;-63
2023/05/01 09:12:57;;;;;;;9.80;9.00;;;12.60;99.90;;;13.58;81.25;97722.81;5123700;28;20208;-63
2023/05/01 09:15:30;;;;;;;9.40;8.60;;;12.80;99.90;;;13.68;79.84;97723.28;5102863;28;21109;-62
2023/05/01 09:18:05;;;;;;;9.38;8.68;;;12.90;99.90;;;13.62;79.01;97720.44;5114299;28;20216;-63
2023/05/01 09:20:38;;;;;;;9.02;8.43;;;12.80;99.90;;;13.65;78.89;97725.72;5102967;28;20774;-62
2023/05/01 09:23:11;;;;;;;8.80;8.10;;;12.80;99.90;;;13.72;80.30;97726.84;5101918;28;20216;-62
2023/05/01 09:25:45;;;;;;;9.48;8.68;;;12.90;99.90;;;13.85;79.59;97724.00;5111093;28;20220;-62
2023/05/01 09:28:18;;;;;;;9.18;8.38;;;13.00;99.90;;;13.88;79.40;97729.25;5102201;28;20236;-63
2023/05/01 09:30:51;;;;;;;9.25;8.43;;;13.00;99.90;;;13.95;77.20;97723.53;5106491;28;20229;-62
2023/05/01 09:33:26;;;;;;;8.93;8.23;;;13.10;99.90;;;14.00;76.15;97728.88;5105528;28;20847;-62
2023/05/01 09:35:59;;;;;;;9.35;8.65;;;13.00;99.90;;;14.14;75.02;97724.31;5099623;28;20668;-63
2023/05/01 09:38:32;;;;;;;7.82;7.22;;;13.20;99.90;;;14.12;76.69;97728.50;5113983;28;20555;-63
2023/05/01 09:41:05;;;;;;;7.88;7.28;;;13.30;99.90;;;14.25;78.48;97715.34;5104808;28;20197;-62
2023/05/01 09:43:39;;;;;;;11.63;10.68;;;13.30;99.90;;;14.12;73.37;97723.38;5110660;28;20204;-63
2023/05/01 09:46:12;;;;;;;10.80;9.90;;;13.50;99.90;;;14.20;73.38;97719.41;5106405;28;20196;-62
2023/05/01 09:48:58;;;;;;;10.10;9.30;;;13.50;99.90;;;14.40;74.24;97720.22;5108405;28;20750;-62
2023/05/01 09:51:33;;;;;;;8.10;7.40;;;13.50;99.90;;;14.63;74.64;97722.03;5108388;28;20312;-62
2023/05/01 09:54:18;;;;;;;8.23;7.63;;;13.60;99.90;;;14.76;73.89;97725.94;5109522;29;20208;-62
2023/05/01 09:56:51;;;;;;;8.27;7.63;;;13.80;99.90;;;14.99;74.02;97719.09;5110601;28;20229;-62
2023/05/01 09:59:24;;;;;;;8.75;7.95;;;14.00;99.90;;;15.14;74.09;97713.66;5105935;28;20758;-63
2023/05/01 10:01:57;;;;;;;8.32;7.63;;;14.20;99.90;;;15.45;72.29;97709.59;5101848;28;20606;-63
2023/05/01 10:04:33;;;;;;;9.32;8.63;;;14.50;99.90;;;15.70;70.19;97716.50;5099501;28;20213;-63
2023/05/01 10:07:13;;;;;;;8.95;8.25;;;14.70;99.90;;;15.92;70.24;97716.44;5106509;28;20404;-62
2023/05/01 10:09:46;;;;;;;8.30;7.60;;;14.90;99.90;;;15.96;68.21;97719.97;5110811;28;20661;-62
2023/05/01 10:12:26;;;;;;;8.20;7.63;;;14.90;99.90;;;16.02;69.75;97709.88;5111366;28;20271;-62
2023/05/01 10:15:00;;;;;;;7.97;7.43;;;15.00;99.90;;;16.04;68.22;97713.38;5101130;28;20231;-62
2023/05/01 10:17:45;;;;;;;7.28;6.78;;;14.90;99.90;;;16.21;66.60;97716.50;5105750;28;20204;-62
2023/05/01 10:20:20;;;;;;;8.23;7.53;;;15.10;99.90;;;16.30;66.60;97713.34;5111526;28;20566;-62
2023/05/01 10:22:54;;;;;;;8.10;7.50;;;15.20;99.90;;;16.42;63.23;97716.31;5107721;28;20203;-63
2023/05/01 10:25:29;;;;;;;7.88;7.25;;;15.40;99.90;;;16.56;62.89;97709.88;5101596;28;20204;-62
2023/05/01 10:28:04;;;;;;;7.32;6.72;;;15.40;99.90;;;16.67;62.39;97708.50;5113245;28;20204;-63
2023/05/01 10:30:39;;;;;;;6.78;6.28;;;15.50;99.90;;;16.66;63.22;97711.94;5102616;28;20416;-62
2023/05/01 10:33:13;;;;;;;7.75;7.18;;;15.70;99.90;;;16.81;61.79;97710.69;5098656;28;20227;-62
2023/05/01 10:35:56;;;;;;;7.57;7.07;;;15.80;99.90;;;16.96;61.86;97705.09;5101151;28;20681;-62
2023/05/01 10:38:33;;;;;;;7.57;7.00;;;15.90;99.90;;;16.95;61.09;97706.81;5101344;28;20590;-63
2023/05/01 10:41:08;;;;;;;7.05;6.55;;;15.90;99.90;;;16.89;61.01;97707.50;5105980;28;20211;-63
2023/05/01 10:43:41;;;;;;;7.68;7.10;;;15.80;99.90;;;17.12;59.38;97704.72;5104503;29;20205;-62
2023/05/01 10:46:28;;;;;;;7.53;6.93;;;16.00;99.90;;;17.03;59.29;97689.84;5107910;28;20208;-63
2023/05/01 10:49:02;;;;;;;6.88;6.38;;;16.10;99.90;;;16.97;60.92;97696.50;5108076;28;20232;-62
2023/05/01 10:52:02;;;;;;;7.60;7.10;;;15.90;99.90;;;17.19;57.72;97678.22;5107326;28;20251;-63
2023/05/01 10:54:35;;;;;;;7.93;7.30;;;16.30;99.90;;;16.81;58.53;97682.28;5107095;28;20196;-63